<?xml version="1.0" encoding="UTF-8" standalone="no" ?>
<gpx xmlns="http://www.topografix.com/GPX/1/1" xmlns:xsi="http://www.w3.org/2001/XMLSchema-instance" xsi:schemaLocation="http://www.topografix.com/GPX/1/1 http://www.topografix.com/GPX/1/1/gpx.xsd" version="1.1" creator="VisuGPX - https://www.visugpx.com">
  <metadata>
    <name>raquettes crètes du countent 8 km 450 m</name>
    <desc><![CDATA[RAQUETES CRETES DU COUNTENT 14 KM 450M
IGN 4640 OT HAUT CIANS VALBERG]]></desc>
  </metadata>
  <trk>
    <name><![CDATA[--Roubion-- OR-5712759:RAQUETTES CRETES DU COUNTENT 450 M 8 KM]]></name>
    <trkseg>
      <trkpt lat="44.10028" lon="7.02312">
        <ele>1676</ele>
        <time>2016-02-11T18:31:00Z</time>
      </trkpt>
      <trkpt lat="44.10067" lon="7.02303">
        <ele>1678</ele>
        <time>2016-02-11T18:33:00Z</time>
      </trkpt>
      <trkpt lat="44.10079" lon="7.02316">
        <ele>1681</ele>
        <time>2016-02-11T18:35:00Z</time>
      </trkpt>
      <trkpt lat="44.10101" lon="7.02314">
        <ele>1686</ele>
        <time>2016-02-11T18:37:00Z</time>
      </trkpt>
      <trkpt lat="44.10119" lon="7.02323">
        <ele>1693</ele>
        <time>2016-02-11T18:39:00Z</time>
      </trkpt>
      <trkpt lat="44.10151" lon="7.02299">
        <ele>1696</ele>
        <time>2016-02-11T18:41:00Z</time>
      </trkpt>
      <trkpt lat="44.10179" lon="7.02291">
        <ele>1697</ele>
        <time>2016-02-11T18:43:00Z</time>
      </trkpt>
      <trkpt lat="44.10208" lon="7.02312">
        <ele>1703</ele>
        <time>2016-02-11T18:45:00Z</time>
      </trkpt>
      <trkpt lat="44.10224" lon="7.02314">
        <ele>1704</ele>
        <time>2016-02-11T18:47:00Z</time>
      </trkpt>
      <trkpt lat="44.10261" lon="7.02349">
        <ele>1711</ele>
        <time>2016-02-11T18:49:00Z</time>
      </trkpt>
      <trkpt lat="44.10299" lon="7.02374">
        <ele>1712</ele>
        <time>2016-02-11T18:51:00Z</time>
      </trkpt>
      <trkpt lat="44.10332" lon="7.02413">
        <ele>1717</ele>
        <time>2016-02-11T18:53:00Z</time>
      </trkpt>
      <trkpt lat="44.10366" lon="7.02473">
        <ele>1720</ele>
        <time>2016-02-11T18:55:00Z</time>
      </trkpt>
      <trkpt lat="44.10387" lon="7.02535">
        <ele>1721</ele>
        <time>2016-02-11T18:57:00Z</time>
      </trkpt>
      <trkpt lat="44.10403" lon="7.02595">
        <ele>1722</ele>
        <time>2016-02-11T18:59:00Z</time>
      </trkpt>
      <trkpt lat="44.10438" lon="7.02623">
        <ele>1725</ele>
        <time>2016-02-11T19:01:00Z</time>
      </trkpt>
      <trkpt lat="44.1048" lon="7.02619">
        <ele>1730</ele>
        <time>2016-02-11T19:03:00Z</time>
      </trkpt>
      <trkpt lat="44.10534" lon="7.02608">
        <ele>1736</ele>
        <time>2016-02-11T19:05:00Z</time>
      </trkpt>
      <trkpt lat="44.1058" lon="7.02617">
        <ele>1745</ele>
        <time>2016-02-11T19:07:00Z</time>
      </trkpt>
      <trkpt lat="44.10615" lon="7.02636">
        <ele>1753</ele>
        <time>2016-02-11T19:09:00Z</time>
      </trkpt>
      <trkpt lat="44.10651" lon="7.02651">
        <ele>1760</ele>
        <time>2016-02-11T19:11:00Z</time>
      </trkpt>
      <trkpt lat="44.10669" lon="7.02677">
        <ele>1766</ele>
        <time>2016-02-11T19:13:00Z</time>
      </trkpt>
      <trkpt lat="44.10706" lon="7.02679">
        <ele>1769</ele>
        <time>2016-02-11T19:15:00Z</time>
      </trkpt>
      <trkpt lat="44.10734" lon="7.02675">
        <ele>1770</ele>
        <time>2016-02-11T19:17:00Z</time>
      </trkpt>
      <trkpt lat="44.10775" lon="7.02688">
        <ele>1778</ele>
        <time>2016-02-11T19:19:00Z</time>
      </trkpt>
      <trkpt lat="44.10845" lon="7.02664">
        <ele>1791</ele>
        <time>2016-02-11T19:21:00Z</time>
      </trkpt>
      <trkpt lat="44.10859" lon="7.02621">
        <ele>1793</ele>
        <time>2016-02-11T19:23:00Z</time>
      </trkpt>
      <trkpt lat="44.1086" lon="7.02574">
        <ele>1793</ele>
        <time>2016-02-11T19:25:00Z</time>
      </trkpt>
      <trkpt lat="44.10893" lon="7.02512">
        <ele>1802</ele>
        <time>2016-02-11T19:27:00Z</time>
      </trkpt>
      <trkpt lat="44.10905" lon="7.02471">
        <ele>1807</ele>
        <time>2016-02-11T19:29:00Z</time>
      </trkpt>
      <trkpt lat="44.1093" lon="7.02428">
        <ele>1812</ele>
        <time>2016-02-11T19:31:00Z</time>
      </trkpt>
      <trkpt lat="44.1095" lon="7.02381">
        <ele>1815</ele>
        <time>2016-02-11T19:33:00Z</time>
      </trkpt>
      <trkpt lat="44.10965" lon="7.02334">
        <ele>1818</ele>
        <time>2016-02-11T19:35:00Z</time>
      </trkpt>
      <trkpt lat="44.1098" lon="7.02273">
        <ele>1825</ele>
        <time>2016-02-11T19:37:00Z</time>
      </trkpt>
      <trkpt lat="44.11019" lon="7.02235">
        <ele>1828</ele>
        <time>2016-02-11T19:39:00Z</time>
      </trkpt>
      <trkpt lat="44.11065" lon="7.02224">
        <ele>1829</ele>
        <time>2016-02-11T19:41:00Z</time>
      </trkpt>
      <trkpt lat="44.11136" lon="7.02153">
        <ele>1839</ele>
        <time>2016-02-11T19:43:00Z</time>
      </trkpt>
      <trkpt lat="44.11178" lon="7.02089">
        <ele>1842</ele>
        <time>2016-02-11T19:45:00Z</time>
      </trkpt>
      <trkpt lat="44.11222" lon="7.0204">
        <ele>1853</ele>
        <time>2016-02-11T19:47:00Z</time>
      </trkpt>
      <trkpt lat="44.11273" lon="7.0199">
        <ele>1863</ele>
        <time>2016-02-11T19:49:00Z</time>
      </trkpt>
      <trkpt lat="44.11305" lon="7.01928">
        <ele>1872</ele>
        <time>2016-02-11T19:51:00Z</time>
      </trkpt>
      <trkpt lat="44.11321" lon="7.01861">
        <ele>1879</ele>
        <time>2016-02-11T19:53:00Z</time>
      </trkpt>
      <trkpt lat="44.11332" lon="7.01799">
        <ele>1885</ele>
        <time>2016-02-11T19:55:00Z</time>
      </trkpt>
      <trkpt lat="44.11341" lon="7.01731">
        <ele>1890</ele>
        <time>2016-02-11T19:57:00Z</time>
      </trkpt>
      <trkpt lat="44.11356" lon="7.01662">
        <ele>1889</ele>
        <time>2016-02-11T19:59:00Z</time>
      </trkpt>
      <trkpt lat="44.11396" lon="7.01651">
        <ele>1890</ele>
        <time>2016-02-11T20:01:00Z</time>
      </trkpt>
      <trkpt lat="44.11432" lon="7.01645">
        <ele>1894</ele>
        <time>2016-02-11T20:03:00Z</time>
      </trkpt>
      <trkpt lat="44.11444" lon="7.01623">
        <ele>1896</ele>
        <time>2016-02-11T20:05:00Z</time>
      </trkpt>
      <trkpt lat="44.11475" lon="7.01591">
        <ele>1902</ele>
        <time>2016-02-11T20:07:00Z</time>
      </trkpt>
      <trkpt lat="44.1147" lon="7.01507">
        <ele>1898</ele>
        <time>2016-02-11T20:09:00Z</time>
      </trkpt>
      <trkpt lat="44.11475" lon="7.01467">
        <ele>1897</ele>
        <time>2016-02-11T20:11:00Z</time>
      </trkpt>
      <trkpt lat="44.1147" lon="7.01432">
        <ele>1895</ele>
        <time>2016-02-11T20:13:00Z</time>
      </trkpt>
      <trkpt lat="44.11473" lon="7.01321">
        <ele>1891</ele>
        <time>2016-02-11T20:15:00Z</time>
      </trkpt>
      <trkpt lat="44.11524" lon="7.01233">
        <ele>1894</ele>
        <time>2016-02-11T20:17:00Z</time>
      </trkpt>
      <trkpt lat="44.1159" lon="7.01155">
        <ele>1901</ele>
        <time>2016-02-11T20:19:00Z</time>
      </trkpt>
      <trkpt lat="44.11652" lon="7.011">
        <ele>1902</ele>
        <time>2016-02-11T20:21:00Z</time>
      </trkpt>
      <trkpt lat="44.11698" lon="7.01057">
        <ele>1911</ele>
        <time>2016-02-11T20:23:00Z</time>
      </trkpt>
      <trkpt lat="44.11686" lon="7.0101">
        <ele>1909</ele>
        <time>2016-02-11T20:25:00Z</time>
      </trkpt>
      <trkpt lat="44.11684" lon="7.00949">
        <ele>1914</ele>
        <time>2016-02-11T20:27:00Z</time>
      </trkpt>
      <trkpt lat="44.1168" lon="7.009">
        <ele>1917</ele>
        <time>2016-02-11T20:29:00Z</time>
      </trkpt>
      <trkpt lat="44.11674" lon="7.00868">
        <ele>1916</ele>
        <time>2016-02-11T20:31:00Z</time>
      </trkpt>
      <trkpt lat="44.11678" lon="7.00831">
        <ele>1921</ele>
        <time>2016-02-11T20:33:00Z</time>
      </trkpt>
      <trkpt lat="44.11671" lon="7.00793">
        <ele>1920</ele>
        <time>2016-02-11T20:35:00Z</time>
      </trkpt>
      <trkpt lat="44.11674" lon="7.00731">
        <ele>1923</ele>
        <time>2016-02-11T20:37:00Z</time>
      </trkpt>
      <trkpt lat="44.11672" lon="7.00701">
        <ele>1923</ele>
        <time>2016-02-11T20:39:00Z</time>
      </trkpt>
      <trkpt lat="44.11695" lon="7.00604">
        <ele>1918</ele>
        <time>2016-02-11T20:41:00Z</time>
      </trkpt>
      <trkpt lat="44.11597" lon="7.00576">
        <ele>1916</ele>
        <time>2016-02-11T20:43:00Z</time>
      </trkpt>
      <trkpt lat="44.11535" lon="7.00557">
        <ele>1907</ele>
        <time>2016-02-11T20:45:00Z</time>
      </trkpt>
      <trkpt lat="44.11481" lon="7.00518">
        <ele>1903</ele>
        <time>2016-02-11T20:47:00Z</time>
      </trkpt>
      <trkpt lat="44.11429" lon="7.0046">
        <ele>1896</ele>
        <time>2016-02-11T20:49:00Z</time>
      </trkpt>
      <trkpt lat="44.11378" lon="7.00424">
        <ele>1883</ele>
        <time>2016-02-11T20:51:00Z</time>
      </trkpt>
      <trkpt lat="44.11307" lon="7.00366">
        <ele>1864</ele>
        <time>2016-02-11T20:53:00Z</time>
      </trkpt>
      <trkpt lat="44.11239" lon="7.00329">
        <ele>1846</ele>
        <time>2016-02-11T20:55:00Z</time>
      </trkpt>
      <trkpt lat="44.11222" lon="7.00284">
        <ele>1836</ele>
        <time>2016-02-11T20:57:00Z</time>
      </trkpt>
      <trkpt lat="44.11219" lon="7.00233">
        <ele>1830</ele>
        <time>2016-02-11T20:59:00Z</time>
      </trkpt>
      <trkpt lat="44.11195" lon="7.00149">
        <ele>1810</ele>
        <time>2016-02-11T21:01:00Z</time>
      </trkpt>
      <trkpt lat="44.11165" lon="7.00065">
        <ele>1787</ele>
        <time>2016-02-11T21:03:00Z</time>
      </trkpt>
      <trkpt lat="44.11154" lon="7.00003">
        <ele>1777</ele>
        <time>2016-02-11T21:05:00Z</time>
      </trkpt>
      <trkpt lat="44.11134" lon="6.99909">
        <ele>1758</ele>
        <time>2016-02-11T21:07:00Z</time>
      </trkpt>
      <trkpt lat="44.11121" lon="6.99825">
        <ele>1747</ele>
        <time>2016-02-11T21:09:00Z</time>
      </trkpt>
      <trkpt lat="44.1109" lon="6.99714">
        <ele>1743</ele>
        <time>2016-02-11T21:11:00Z</time>
      </trkpt>
      <trkpt lat="44.11064" lon="6.99643">
        <ele>1737</ele>
        <time>2016-02-11T21:13:00Z</time>
      </trkpt>
      <trkpt lat="44.11037" lon="6.9957">
        <ele>1729</ele>
        <time>2016-02-11T21:15:00Z</time>
      </trkpt>
      <trkpt lat="44.10994" lon="6.99465">
        <ele>1718</ele>
        <time>2016-02-11T21:17:00Z</time>
      </trkpt>
      <trkpt lat="44.10943" lon="6.99415">
        <ele>1712</ele>
        <time>2016-02-11T21:19:00Z</time>
      </trkpt>
      <trkpt lat="44.10876" lon="6.9939">
        <ele>1700</ele>
        <time>2016-02-11T21:21:00Z</time>
      </trkpt>
      <trkpt lat="44.10849" lon="6.99368">
        <ele>1697</ele>
        <time>2016-02-11T21:23:00Z</time>
      </trkpt>
      <trkpt lat="44.108" lon="6.99372">
        <ele>1686</ele>
        <time>2016-02-11T21:25:00Z</time>
      </trkpt>
      <trkpt lat="44.10725" lon="6.99366">
        <ele>1669</ele>
        <time>2016-02-11T21:27:00Z</time>
      </trkpt>
      <trkpt lat="44.1068" lon="6.99344">
        <ele>1662</ele>
        <time>2016-02-11T21:29:00Z</time>
      </trkpt>
      <trkpt lat="44.10644" lon="6.99329">
        <ele>1654</ele>
        <time>2016-02-11T21:31:00Z</time>
      </trkpt>
      <trkpt lat="44.10606" lon="6.99362">
        <ele>1644</ele>
        <time>2016-02-11T21:33:00Z</time>
      </trkpt>
      <trkpt lat="44.10571" lon="6.99394">
        <ele>1636</ele>
        <time>2016-02-11T21:35:00Z</time>
      </trkpt>
      <trkpt lat="44.10537" lon="6.99411">
        <ele>1629</ele>
        <time>2016-02-11T21:37:00Z</time>
      </trkpt>
      <trkpt lat="44.10501" lon="6.99411">
        <ele>1621</ele>
        <time>2016-02-11T21:39:00Z</time>
      </trkpt>
      <trkpt lat="44.10458" lon="6.99362">
        <ele>1601</ele>
        <time>2016-02-11T21:41:00Z</time>
      </trkpt>
      <trkpt lat="44.10446" lon="6.99415">
        <ele>1600</ele>
        <time>2016-02-11T21:43:00Z</time>
      </trkpt>
      <trkpt lat="44.10447" lon="6.99462">
        <ele>1594</ele>
        <time>2016-02-11T21:45:00Z</time>
      </trkpt>
      <trkpt lat="44.10473" lon="6.99514">
        <ele>1592</ele>
        <time>2016-02-11T21:47:00Z</time>
      </trkpt>
      <trkpt lat="44.1052" lon="6.99553">
        <ele>1594</ele>
        <time>2016-02-11T21:49:00Z</time>
      </trkpt>
      <trkpt lat="44.10577" lon="6.99596">
        <ele>1599</ele>
        <time>2016-02-11T21:51:00Z</time>
      </trkpt>
      <trkpt lat="44.10552" lon="6.99638">
        <ele>1597</ele>
        <time>2016-02-11T21:53:00Z</time>
      </trkpt>
      <trkpt lat="44.10529" lon="6.99668">
        <ele>1595</ele>
        <time>2016-02-11T21:55:00Z</time>
      </trkpt>
      <trkpt lat="44.10512" lon="6.99731">
        <ele>1607</ele>
        <time>2016-02-11T21:57:00Z</time>
      </trkpt>
      <trkpt lat="44.10472" lon="6.99746">
        <ele>1605</ele>
        <time>2016-02-11T21:59:00Z</time>
      </trkpt>
      <trkpt lat="44.10429" lon="6.99804">
        <ele>1616</ele>
        <time>2016-02-11T22:01:00Z</time>
      </trkpt>
      <trkpt lat="44.10367" lon="6.99836">
        <ele>1618</ele>
        <time>2016-02-11T22:03:00Z</time>
      </trkpt>
      <trkpt lat="44.10322" lon="6.99855">
        <ele>1622</ele>
        <time>2016-02-11T22:05:00Z</time>
      </trkpt>
      <trkpt lat="44.10261" lon="6.99879">
        <ele>1626</ele>
        <time>2016-02-11T22:07:00Z</time>
      </trkpt>
      <trkpt lat="44.10241" lon="6.99889">
        <ele>1628</ele>
        <time>2016-02-11T22:09:00Z</time>
      </trkpt>
      <trkpt lat="44.10191" lon="6.99907">
        <ele>1629</ele>
        <time>2016-02-11T22:11:00Z</time>
      </trkpt>
      <trkpt lat="44.10181" lon="6.99932">
        <ele>1634</ele>
        <time>2016-02-11T22:13:00Z</time>
      </trkpt>
      <trkpt lat="44.10153" lon="6.9995">
        <ele>1633</ele>
        <time>2016-02-11T22:15:00Z</time>
      </trkpt>
      <trkpt lat="44.10154" lon="7.00003">
        <ele>1642</ele>
        <time>2016-02-11T22:17:00Z</time>
      </trkpt>
      <trkpt lat="44.10147" lon="7.0007">
        <ele>1641</ele>
        <time>2016-02-11T22:19:00Z</time>
      </trkpt>
      <trkpt lat="44.10158" lon="7.00134">
        <ele>1646</ele>
        <time>2016-02-11T22:21:00Z</time>
      </trkpt>
      <trkpt lat="44.1019" lon="7.00203">
        <ele>1658</ele>
        <time>2016-02-11T22:23:00Z</time>
      </trkpt>
      <trkpt lat="44.10201" lon="7.00166">
        <ele>1666</ele>
        <time>2016-02-11T22:25:00Z</time>
      </trkpt>
      <trkpt lat="44.10221" lon="7.00179">
        <ele>1674</ele>
        <time>2016-02-11T22:27:00Z</time>
      </trkpt>
      <trkpt lat="44.10219" lon="7.00254">
        <ele>1670</ele>
        <time>2016-02-11T22:29:00Z</time>
      </trkpt>
      <trkpt lat="44.10242" lon="7.00286">
        <ele>1676</ele>
        <time>2016-02-11T22:31:00Z</time>
      </trkpt>
      <trkpt lat="44.10265" lon="7.00349">
        <ele>1669</ele>
        <time>2016-02-11T22:33:00Z</time>
      </trkpt>
      <trkpt lat="44.10296" lon="7.00377">
        <ele>1666</ele>
        <time>2016-02-11T22:35:00Z</time>
      </trkpt>
      <trkpt lat="44.10363" lon="7.00387">
        <ele>1670</ele>
        <time>2016-02-11T22:37:00Z</time>
      </trkpt>
      <trkpt lat="44.10416" lon="7.00402">
        <ele>1665</ele>
        <time>2016-02-11T22:39:00Z</time>
      </trkpt>
      <trkpt lat="44.1047" lon="7.00454">
        <ele>1660</ele>
        <time>2016-02-11T22:41:00Z</time>
      </trkpt>
      <trkpt lat="44.10515" lon="7.00501">
        <ele>1659</ele>
        <time>2016-02-11T22:43:00Z</time>
      </trkpt>
      <trkpt lat="44.10529" lon="7.00555">
        <ele>1655</ele>
        <time>2016-02-11T22:45:00Z</time>
      </trkpt>
      <trkpt lat="44.10547" lon="7.006">
        <ele>1650</ele>
        <time>2016-02-11T22:47:00Z</time>
      </trkpt>
      <trkpt lat="44.10584" lon="7.00638">
        <ele>1646</ele>
        <time>2016-02-11T22:49:00Z</time>
      </trkpt>
      <trkpt lat="44.10618" lon="7.00679">
        <ele>1641</ele>
        <time>2016-02-11T22:51:00Z</time>
      </trkpt>
      <trkpt lat="44.1064" lon="7.00731">
        <ele>1638</ele>
        <time>2016-02-11T22:53:00Z</time>
      </trkpt>
      <trkpt lat="44.10663" lon="7.00771">
        <ele>1637</ele>
        <time>2016-02-11T22:55:00Z</time>
      </trkpt>
      <trkpt lat="44.10711" lon="7.00795">
        <ele>1642</ele>
        <time>2016-02-11T22:57:00Z</time>
      </trkpt>
      <trkpt lat="44.10732" lon="7.00842">
        <ele>1640</ele>
        <time>2016-02-11T22:59:00Z</time>
      </trkpt>
      <trkpt lat="44.10782" lon="7.00894">
        <ele>1642</ele>
        <time>2016-02-11T23:01:00Z</time>
      </trkpt>
      <trkpt lat="44.10728" lon="7.00913">
        <ele>1634</ele>
        <time>2016-02-11T23:03:00Z</time>
      </trkpt>
      <trkpt lat="44.10674" lon="7.00917">
        <ele>1631</ele>
        <time>2016-02-11T23:05:00Z</time>
      </trkpt>
      <trkpt lat="44.10615" lon="7.00922">
        <ele>1639</ele>
        <time>2016-02-11T23:07:00Z</time>
      </trkpt>
      <trkpt lat="44.10561" lon="7.0093">
        <ele>1648</ele>
        <time>2016-02-11T23:09:00Z</time>
      </trkpt>
      <trkpt lat="44.10523" lon="7.00947">
        <ele>1655</ele>
        <time>2016-02-11T23:11:00Z</time>
      </trkpt>
      <trkpt lat="44.10492" lon="7.00988">
        <ele>1662</ele>
        <time>2016-02-11T23:13:00Z</time>
      </trkpt>
      <trkpt lat="44.10477" lon="7.01037">
        <ele>1670</ele>
        <time>2016-02-11T23:15:00Z</time>
      </trkpt>
      <trkpt lat="44.1047" lon="7.011">
        <ele>1683</ele>
        <time>2016-02-11T23:17:00Z</time>
      </trkpt>
      <trkpt lat="44.10449" lon="7.0114">
        <ele>1689</ele>
        <time>2016-02-11T23:19:00Z</time>
      </trkpt>
      <trkpt lat="44.1043" lon="7.01186">
        <ele>1695</ele>
        <time>2016-02-11T23:21:00Z</time>
      </trkpt>
      <trkpt lat="44.10424" lon="7.01243">
        <ele>1707</ele>
        <time>2016-02-11T23:23:00Z</time>
      </trkpt>
      <trkpt lat="44.10421" lon="7.01304">
        <ele>1719</ele>
        <time>2016-02-11T23:25:00Z</time>
      </trkpt>
      <trkpt lat="44.10427" lon="7.01349">
        <ele>1726</ele>
        <time>2016-02-11T23:27:00Z</time>
      </trkpt>
      <trkpt lat="44.10409" lon="7.01394">
        <ele>1719</ele>
        <time>2016-02-11T23:29:00Z</time>
      </trkpt>
      <trkpt lat="44.10396" lon="7.01432">
        <ele>1713</ele>
        <time>2016-02-11T23:31:00Z</time>
      </trkpt>
      <trkpt lat="44.10398" lon="7.01475">
        <ele>1711</ele>
        <time>2016-02-11T23:33:00Z</time>
      </trkpt>
      <trkpt lat="44.10364" lon="7.01503">
        <ele>1700</ele>
        <time>2016-02-11T23:35:00Z</time>
      </trkpt>
      <trkpt lat="44.10333" lon="7.0154">
        <ele>1696</ele>
        <time>2016-02-11T23:37:00Z</time>
      </trkpt>
      <trkpt lat="44.10312" lon="7.01583">
        <ele>1696</ele>
        <time>2016-02-11T23:39:00Z</time>
      </trkpt>
      <trkpt lat="44.10295" lon="7.01634">
        <ele>1699</ele>
        <time>2016-02-11T23:41:00Z</time>
      </trkpt>
      <trkpt lat="44.10285" lon="7.01675">
        <ele>1701</ele>
        <time>2016-02-11T23:43:00Z</time>
      </trkpt>
      <trkpt lat="44.10227" lon="7.01752">
        <ele>1688</ele>
        <time>2016-02-11T23:45:00Z</time>
      </trkpt>
      <trkpt lat="44.10156" lon="7.01872">
        <ele>1668</ele>
        <time>2016-02-11T23:47:00Z</time>
      </trkpt>
      <trkpt lat="44.10178" lon="7.01888">
        <ele>1673</ele>
        <time>2016-02-11T23:49:00Z</time>
      </trkpt>
      <trkpt lat="44.10207" lon="7.01922">
        <ele>1677</ele>
        <time>2016-02-11T23:51:00Z</time>
      </trkpt>
      <trkpt lat="44.10216" lon="7.01949">
        <ele>1676</ele>
        <time>2016-02-11T23:53:00Z</time>
      </trkpt>
      <trkpt lat="44.10205" lon="7.01973">
        <ele>1669</ele>
        <time>2016-02-11T23:55:00Z</time>
      </trkpt>
      <trkpt lat="44.10184" lon="7.01988">
        <ele>1661</ele>
        <time>2016-02-11T23:57:00Z</time>
      </trkpt>
      <trkpt lat="44.10176" lon="7.0202">
        <ele>1655</ele>
        <time>2016-02-11T23:59:00Z</time>
      </trkpt>
      <trkpt lat="44.1019" lon="7.02055">
        <ele>1652</ele>
        <time>2016-02-12T00:01:00Z</time>
      </trkpt>
      <trkpt lat="44.10205" lon="7.0208">
        <ele>1650</ele>
        <time>2016-02-12T00:03:00Z</time>
      </trkpt>
      <trkpt lat="44.10221" lon="7.02093">
        <ele>1652</ele>
        <time>2016-02-12T00:05:00Z</time>
      </trkpt>
      <trkpt lat="44.10217" lon="7.02109">
        <ele>1653</ele>
        <time>2016-02-12T00:07:00Z</time>
      </trkpt>
      <trkpt lat="44.10213" lon="7.02149">
        <ele>1656</ele>
        <time>2016-02-12T00:09:00Z</time>
      </trkpt>
      <trkpt lat="44.10171" lon="7.02158">
        <ele>1654</ele>
        <time>2016-02-12T00:11:00Z</time>
      </trkpt>
      <trkpt lat="44.1013" lon="7.02168">
        <ele>1654</ele>
        <time>2016-02-12T00:13:00Z</time>
      </trkpt>
      <trkpt lat="44.10104" lon="7.02213">
        <ele>1665</ele>
        <time>2016-02-12T00:15:00Z</time>
      </trkpt>
      <trkpt lat="44.10078" lon="7.02244">
        <ele>1671</ele>
        <time>2016-02-12T00:17:00Z</time>
      </trkpt>
      <trkpt lat="44.10046" lon="7.02266">
        <ele>1675</ele>
        <time>2016-02-12T00:19:00Z</time>
      </trkpt>
      <trkpt lat="44.1003" lon="7.02282">
        <ele>1676</ele>
        <time>2016-02-12T00:21:00Z</time>
      </trkpt>
      <trkpt lat="44.1" lon="7.02316">
        <ele>1672</ele>
        <time>2016-02-12T00:23:00Z</time>
      </trkpt>
    </trkseg>
  </trk>
</gpx>